sensor_id;sensor_type;location;lat;lon;timestamp;P1;durP1;ratioP1;P2;durP2;ratioP2
59159;SDS011;44941;45.058;20.076;2022-11-15T00:00:19;26.85;;;16.95;;
59159;SDS011;44941;45.058;20.076;2022-11-15T00:02:45;25.92;;;15.95;;
59159;SDS011;44941;45.058;20.076;2022-11-15T00:05:11;26.33;;;15.90;;
59159;SDS011;44941;45.058;20.076;2022-11-15T00:07:38;29.50;;;16.35;;
59159;SDS011;44941;45.058;20.076;2022-11-15T00:10:04;26.98;;;16.20;;
59159;SDS011;44941;45.058;20.076;2022-11-15T00:12:30;28.10;;;16.95;;
59159;SDS011;44941;45.058;20.076;2022-11-15T00:14:56;28.65;;;16.17;;
59159;SDS011;44941;45.058;20.076;2022-11-15T00:17:22;28.40;;;17.15;;
59159;SDS011;44941;45.058;20.076;2022-11-15T00:19:48;28.15;;;15.80;;
59159;SDS011;44941;45.058;20.076;2022-11-15T00:22:14;26.77;;;16.02;;
59159;SDS011;44941;45.058;20.076;2022-11-15T00:24:40;28.63;;;16.17;;
59159;SDS011;44941;45.058;20.076;2022-11-15T00:27:07;27.70;;;14.95;;
59159;SDS011;44941;45.058;20.076;2022-11-15T00:29:34;24.30;;;15.15;;
59159;SDS011;44941;45.058;20.076;2022-11-15T00:32:02;26.88;;;16.35;;
59159;SDS011;44941;45.058;20.076;2022-11-15T00:37:14;30.98;;;17.17;;
59159;SDS011;44941;45.058;20.076;2022-11-15T00:39:40;31.20;;;16.30;;
59159;SDS011;44941;45.058;20.076;2022-11-15T00:42:06;27.10;;;16.00;;
59159;SDS011;44941;45.058;20.076;2022-11-15T00:44:32;26.60;;;15.38;;
59159;SDS011;44941;45.058;20.076;2022-11-15T00:46:58;26.52;;;14.43;;
59159;SDS011;44941;45.058;20.076;2022-11-15T00:49:24;26.02;;;14.73;;
59159;SDS011;44941;45.058;20.076;2022-11-15T00:51:50;25.20;;;14.48;;
59159;SDS011;44941;45.058;20.076;2022-11-15T00:54:16;23.75;;;14.80;;
59159;SDS011;44941;45.058;20.076;2022-11-15T00:56:43;26.08;;;15.07;;
59159;SDS011;44941;45.058;20.076;2022-11-15T00:59:09;27.95;;;15.70;;
59159;SDS011;44941;45.058;20.076;2022-11-15T01:01:35;30.42;;;16.70;;
59159;SDS011;44941;45.058;20.076;2022-11-15T01:04:01;33.53;;;16.33;;
59159;SDS011;44941;45.058;20.076;2022-11-15T01:06:27;34.78;;;17.48;;
59159;SDS011;44941;45.058;20.076;2022-11-15T01:08:53;32.15;;;17.55;;
59159;SDS011;44941;45.058;20.076;2022-11-15T01:11:19;34.13;;;16.92;;
59159;SDS011;44941;45.058;20.076;2022-11-15T01:13:45;34.63;;;18.42;;
59159;SDS011;44941;45.058;20.076;2022-11-15T01:16:15;29.90;;;16.80;;
59159;SDS011;44941;45.058;20.076;2022-11-15T01:18:43;33.55;;;16.80;;
59159;SDS011;44941;45.058;20.076;2022-11-15T01:21:10;30.80;;;15.35;;
59159;SDS011;44941;45.058;20.076;2022-11-15T01:23:36;27.10;;;15.50;;
59159;SDS011;44941;45.058;20.076;2022-11-15T01:26:04;28.00;;;14.82;;
59159;SDS011;44941;45.058;20.076;2022-11-15T01:28:31;27.77;;;16.25;;
59159;SDS011;44941;45.058;20.076;2022-11-15T01:30:58;25.40;;;14.25;;
59159;SDS011;44941;45.058;20.076;2022-11-15T01:36:18;26.70;;;14.57;;
59159;SDS011;44941;45.058;20.076;2022-11-15T01:38:46;29.10;;;15.57;;
59159;SDS011;44941;45.058;20.076;2022-11-15T01:41:19;28.48;;;14.57;;
59159;SDS011;44941;45.058;20.076;2022-11-15T01:43:46;27.33;;;15.57;;
59159;SDS011;44941;45.058;20.076;2022-11-15T01:46:22;25.92;;;14.32;;
59159;SDS011;44941;45.058;20.076;2022-11-15T01:48:52;26.38;;;14.75;;
59159;SDS011;44941;45.058;20.076;2022-11-15T01:51:20;25.63;;;14.82;;
59159;SDS011;44941;45.058;20.076;2022-11-15T01:53:48;29.65;;;15.70;;
59159;SDS011;44941;45.058;20.076;2022-11-15T01:56:16;31.13;;;16.65;;
59159;SDS011;44941;45.058;20.076;2022-11-15T01:58:43;26.13;;;16.52;;
59159;SDS011;44941;45.058;20.076;2022-11-15T02:01:11;30.13;;;15.75;;
59159;SDS011;44941;45.058;20.076;2022-11-15T02:09:44;32.17;;;15.63;;
59159;SDS011;44941;45.058;20.076;2022-11-15T02:12:11;37.03;;;16.92;;
59159;SDS011;44941;45.058;20.076;2022-11-15T02:14:39;34.53;;;17.80;;
59159;SDS011;44941;45.058;20.076;2022-11-15T02:17:22;33.10;;;17.07;;
59159;SDS011;44941;45.058;20.076;2022-11-15T02:25:57;24.13;;;14.18;;
59159;SDS011;44941;45.058;20.076;2022-11-15T02:30:40;22.60;;;13.55;;
59159;SDS011;44941;45.058;20.076;2022-11-15T02:39:32;22.70;;;13.80;;
59159;SDS011;44941;45.058;20.076;2022-11-15T02:42:33;22.02;;;13.40;;
59159;SDS011;44941;45.058;20.076;2022-11-15T02:45:11;26.15;;;14.10;;
59159;SDS011;44941;45.058;20.076;2022-11-15T02:47:41;25.33;;;13.98;;
59159;SDS011;44941;45.058;20.076;2022-11-15T02:53:11;20.40;;;12.75;;
59159;SDS011;44941;45.058;20.076;2022-11-15T02:55:41;21.48;;;13.00;;
59159;SDS011;44941;45.058;20.076;2022-11-15T03:01:04;24.52;;;13.43;;
59159;SDS011;44941;45.058;20.076;2022-11-15T03:11:03;36.72;;;16.33;;
59159;SDS011;44941;45.058;20.076;2022-11-15T03:18:35;33.67;;;16.58;;
59159;SDS011;44941;45.058;20.076;2022-11-15T03:24:30;36.47;;;17.80;;
59159;SDS011;44941;45.058;20.076;2022-11-15T03:26:57;29.50;;;16.77;;
59159;SDS011;44941;45.058;20.076;2022-11-15T03:29:29;31.42;;;17.35;;
59159;SDS011;44941;45.058;20.076;2022-11-15T03:31:59;30.45;;;16.63;;
59159;SDS011;44941;45.058;20.076;2022-11-15T03:40:14;27.83;;;17.63;;
59159;SDS011;44941;45.058;20.076;2022-11-15T03:45:23;32.83;;;18.88;;
59159;SDS011;44941;45.058;20.076;2022-11-15T03:47:53;32.78;;;18.63;;
59159;SDS011;44941;45.058;20.076;2022-11-15T03:50:32;32.35;;;19.20;;
59159;SDS011;44941;45.058;20.076;2022-11-15T03:52:59;31.40;;;19.63;;
59159;SDS011;44941;45.058;20.076;2022-11-15T03:55:26;35.30;;;20.67;;
59159;SDS011;44941;45.058;20.076;2022-11-15T03:57:53;33.03;;;21.00;;
59159;SDS011;44941;45.058;20.076;2022-11-15T04:02:46;34.58;;;21.55;;
59159;SDS011;44941;45.058;20.076;2022-11-15T04:05:12;35.08;;;22.40;;
59159;SDS011;44941;45.058;20.076;2022-11-15T04:07:38;33.65;;;21.73;;
59159;SDS011;44941;45.058;20.076;2022-11-15T04:10:04;32.60;;;22.13;;
59159;SDS011;44941;45.058;20.076;2022-11-15T04:12:31;34.50;;;24.17;;
59159;SDS011;44941;45.058;20.076;2022-11-15T04:15:03;36.35;;;22.92;;
59159;SDS011;44941;45.058;20.076;2022-11-15T04:20:03;37.60;;;24.73;;
59159;SDS011;44941;45.058;20.076;2022-11-15T04:22:48;35.17;;;23.02;;
59159;SDS011;44941;45.058;20.076;2022-11-15T04:25:32;37.03;;;24.23;;
59159;SDS011;44941;45.058;20.076;2022-11-15T04:27:58;36.70;;;24.58;;
59159;SDS011;44941;45.058;20.076;2022-11-15T04:30:24;35.92;;;25.35;;
59159;SDS011;44941;45.058;20.076;2022-11-15T04:32:50;35.63;;;24.55;;
59159;SDS011;44941;45.058;20.076;2022-11-15T04:35:17;38.03;;;25.15;;
59159;SDS011;44941;45.058;20.076;2022-11-15T04:37:43;40.20;;;25.83;;
59159;SDS011;44941;45.058;20.076;2022-11-15T04:40:09;39.60;;;26.08;;
59159;SDS011;44941;45.058;20.076;2022-11-15T04:42:35;40.50;;;26.33;;
59159;SDS011;44941;45.058;20.076;2022-11-15T04:45:01;43.50;;;27.52;;
59159;SDS011;44941;45.058;20.076;2022-11-15T04:47:27;39.63;;;26.13;;
59159;SDS011;44941;45.058;20.076;2022-11-15T04:49:54;40.05;;;25.40;;
59159;SDS011;44941;45.058;20.076;2022-11-15T04:52:20;42.67;;;27.15;;
59159;SDS011;44941;45.058;20.076;2022-11-15T04:54:46;40.88;;;25.88;;
59159;SDS011;44941;45.058;20.076;2022-11-15T04:57:12;42.03;;;26.25;;
59159;SDS011;44941;45.058;20.076;2022-11-15T04:59:38;42.00;;;25.50;;
59159;SDS011;44941;45.058;20.076;2022-11-15T05:02:04;40.20;;;25.92;;
59159;SDS011;44941;45.058;20.076;2022-11-15T05:04:30;41.03;;;26.30;;
59159;SDS011;44941;45.058;20.076;2022-11-15T05:06:56;39.55;;;25.58;;
59159;SDS011;44941;45.058;20.076;2022-11-15T05:09:22;40.63;;;25.95;;
59159;SDS011;44941;45.058;20.076;2022-11-15T05:11:48;43.92;;;26.55;;
59159;SDS011;44941;45.058;20.076;2022-11-15T05:14:15;43.47;;;26.42;;
59159;SDS011;44941;45.058;20.076;2022-11-15T05:16:41;45.63;;;26.17;;
59159;SDS011;44941;45.058;20.076;2022-11-15T05:19:07;50.85;;;29.42;;
59159;SDS011;44941;45.058;20.076;2022-11-15T05:21:33;46.03;;;26.33;;
59159;SDS011;44941;45.058;20.076;2022-11-15T05:24:00;53.38;;;29.38;;
59159;SDS011;44941;45.058;20.076;2022-11-15T05:26:26;52.47;;;29.67;;
59159;SDS011;44941;45.058;20.076;2022-11-15T05:28:56;58.30;;;31.67;;
59159;SDS011;44941;45.058;20.076;2022-11-15T05:31:22;56.72;;;30.75;;
59159;SDS011;44941;45.058;20.076;2022-11-15T05:33:49;63.75;;;32.47;;
59159;SDS011;44941;45.058;20.076;2022-11-15T05:39:19;55.35;;;29.27;;
59159;SDS011;44941;45.058;20.076;2022-11-15T05:41:46;60.65;;;31.67;;
59159;SDS011;44941;45.058;20.076;2022-11-15T05:44:14;59.33;;;30.45;;
59159;SDS011;44941;45.058;20.076;2022-11-15T05:46:41;56.38;;;28.75;;
59159;SDS011;44941;45.058;20.076;2022-11-15T05:49:09;50.90;;;27.85;;
59159;SDS011;44941;45.058;20.076;2022-11-15T05:51:36;55.17;;;28.88;;
59159;SDS011;44941;45.058;20.076;2022-11-15T05:54:03;51.30;;;29.92;;
59159;SDS011;44941;45.058;20.076;2022-11-15T05:56:29;53.00;;;29.85;;
59159;SDS011;44941;45.058;20.076;2022-11-15T05:58:56;57.92;;;30.70;;
59159;SDS011;44941;45.058;20.076;2022-11-15T06:01:22;53.85;;;29.75;;
59159;SDS011;44941;45.058;20.076;2022-11-15T06:03:48;58.97;;;29.75;;
59159;SDS011;44941;45.058;20.076;2022-11-15T06:09:18;52.13;;;28.85;;
59159;SDS011;44941;45.058;20.076;2022-11-15T06:11:44;59.80;;;31.10;;
59159;SDS011;44941;45.058;20.076;2022-11-15T06:14:11;59.42;;;32.03;;
59159;SDS011;44941;45.058;20.076;2022-11-15T06:16:37;60.58;;;32.28;;
59159;SDS011;44941;45.058;20.076;2022-11-15T06:19:03;60.55;;;32.03;;
59159;SDS011;44941;45.058;20.076;2022-11-15T06:21:29;60.85;;;33.53;;
59159;SDS011;44941;45.058;20.076;2022-11-15T06:23:55;58.22;;;32.58;;
59159;SDS011;44941;45.058;20.076;2022-11-15T06:26:21;53.75;;;29.52;;
59159;SDS011;44941;45.058;20.076;2022-11-15T06:28:47;54.63;;;29.60;;
59159;SDS011;44941;45.058;20.076;2022-11-15T06:31:13;52.85;;;29.52;;
59159;SDS011;44941;45.058;20.076;2022-11-15T06:33:39;58.88;;;31.38;;
59159;SDS011;44941;45.058;20.076;2022-11-15T06:36:07;56.90;;;31.13;;
59159;SDS011;44941;45.058;20.076;2022-11-15T06:38:33;61.72;;;30.90;;
59159;SDS011;44941;45.058;20.076;2022-11-15T06:41:03;62.88;;;33.25;;
59159;SDS011;44941;45.058;20.076;2022-11-15T06:43:30;56.47;;;32.85;;
59159;SDS011;44941;45.058;20.076;2022-11-15T06:45:57;59.15;;;32.50;;
59159;SDS011;44941;45.058;20.076;2022-11-15T06:50:51;55.50;;;31.33;;
59159;SDS011;44941;45.058;20.076;2022-11-15T06:53:17;53.20;;;29.77;;
59159;SDS011;44941;45.058;20.076;2022-11-15T06:55:43;51.50;;;28.83;;
59159;SDS011;44941;45.058;20.076;2022-11-15T06:58:09;50.92;;;29.10;;
59159;SDS011;44941;45.058;20.076;2022-11-15T07:00:35;51.05;;;28.98;;
59159;SDS011;44941;45.058;20.076;2022-11-15T07:03:01;56.25;;;30.50;;
59159;SDS011;44941;45.058;20.076;2022-11-15T07:05:28;54.53;;;31.25;;
59159;SDS011;44941;45.058;20.076;2022-11-15T07:07:55;53.72;;;30.75;;
59159;SDS011;44941;45.058;20.076;2022-11-15T07:10:21;57.75;;;31.02;;
59159;SDS011;44941;45.058;20.076;2022-11-15T07:12:49;63.17;;;31.65;;
59159;SDS011;44941;45.058;20.076;2022-11-15T07:15:16;65.63;;;33.47;;
59159;SDS011;44941;45.058;20.076;2022-11-15T07:17:42;66.25;;;34.13;;
59159;SDS011;44941;45.058;20.076;2022-11-15T07:20:08;63.67;;;34.20;;
59159;SDS011;44941;45.058;20.076;2022-11-15T07:22:34;60.15;;;33.92;;
59159;SDS011;44941;45.058;20.076;2022-11-15T07:25:01;71.65;;;33.80;;
59159;SDS011;44941;45.058;20.076;2022-11-15T07:27:27;65.47;;;32.95;;
59159;SDS011;44941;45.058;20.076;2022-11-15T07:29:53;67.07;;;34.42;;
59159;SDS011;44941;45.058;20.076;2022-11-15T07:32:19;60.67;;;33.35;;
59159;SDS011;44941;45.058;20.076;2022-11-15T07:34:45;64.65;;;36.08;;
59159;SDS011;44941;45.058;20.076;2022-11-15T07:37:23;66.65;;;33.92;;
59159;SDS011;44941;45.058;20.076;2022-11-15T07:39:49;67.65;;;34.33;;
59159;SDS011;44941;45.058;20.076;2022-11-15T07:42:15;61.05;;;34.80;;
59159;SDS011;44941;45.058;20.076;2022-11-15T07:45:00;59.53;;;33.58;;
59159;SDS011;44941;45.058;20.076;2022-11-15T07:47:27;64.80;;;34.72;;
59159;SDS011;44941;45.058;20.076;2022-11-15T07:49:54;59.85;;;33.72;;
59159;SDS011;44941;45.058;20.076;2022-11-15T07:52:20;64.95;;;34.58;;
59159;SDS011;44941;45.058;20.076;2022-11-15T07:54:46;59.85;;;34.42;;
59159;SDS011;44941;45.058;20.076;2022-11-15T07:57:12;61.75;;;33.53;;
59159;SDS011;44941;45.058;20.076;2022-11-15T07:59:38;63.22;;;35.38;;
59159;SDS011;44941;45.058;20.076;2022-11-15T08:02:04;63.95;;;34.70;;
59159;SDS011;44941;45.058;20.076;2022-11-15T08:04:30;64.70;;;35.53;;
59159;SDS011;44941;45.058;20.076;2022-11-15T08:06:56;65.30;;;36.40;;
59159;SDS011;44941;45.058;20.076;2022-11-15T08:09:22;67.55;;;36.88;;
59159;SDS011;44941;45.058;20.076;2022-11-15T08:11:48;68.15;;;37.88;;
59159;SDS011;44941;45.058;20.076;2022-11-15T08:14:14;69.18;;;38.22;;
59159;SDS011;44941;45.058;20.076;2022-11-15T08:16:40;70.63;;;37.33;;
59159;SDS011;44941;45.058;20.076;2022-11-15T08:19:07;70.70;;;37.50;;
59159;SDS011;44941;45.058;20.076;2022-11-15T08:21:33;74.85;;;37.72;;
59159;SDS011;44941;45.058;20.076;2022-11-15T08:24:00;71.50;;;36.22;;
59159;SDS011;44941;45.058;20.076;2022-11-15T08:26:26;70.43;;;35.08;;
59159;SDS011;44941;45.058;20.076;2022-11-15T08:28:54;62.97;;;34.83;;
59159;SDS011;44941;45.058;20.076;2022-11-15T08:31:21;65.65;;;34.97;;
59159;SDS011;44941;45.058;20.076;2022-11-15T08:33:47;64.32;;;35.10;;
59159;SDS011;44941;45.058;20.076;2022-11-15T08:36:13;62.35;;;34.75;;
59159;SDS011;44941;45.058;20.076;2022-11-15T08:38:40;59.00;;;32.95;;
59159;SDS011;44941;45.058;20.076;2022-11-15T08:41:06;58.10;;;32.95;;
59159;SDS011;44941;45.058;20.076;2022-11-15T08:43:32;56.35;;;32.40;;
59159;SDS011;44941;45.058;20.076;2022-11-15T08:45:58;51.60;;;30.20;;
59159;SDS011;44941;45.058;20.076;2022-11-15T08:48:24;51.55;;;31.33;;
59159;SDS011;44941;45.058;20.076;2022-11-15T08:50:54;51.28;;;30.83;;
59159;SDS011;44941;45.058;20.076;2022-11-15T08:53:20;51.50;;;31.90;;
59159;SDS011;44941;45.058;20.076;2022-11-15T08:55:46;55.55;;;32.63;;
59159;SDS011;44941;45.058;20.076;2022-11-15T08:58:12;53.22;;;33.45;;
59159;SDS011;44941;45.058;20.076;2022-11-15T09:00:38;57.90;;;33.80;;
59159;SDS011;44941;45.058;20.076;2022-11-15T09:03:05;55.42;;;34.50;;
59159;SDS011;44941;45.058;20.076;2022-11-15T09:05:31;59.30;;;34.80;;
59159;SDS011;44941;45.058;20.076;2022-11-15T09:07:58;62.75;;;36.70;;
59159;SDS011;44941;45.058;20.076;2022-11-15T09:10:24;61.03;;;35.47;;
59159;SDS011;44941;45.058;20.076;2022-11-15T09:12:50;62.45;;;36.92;;
59159;SDS011;44941;45.058;20.076;2022-11-15T09:15:16;62.33;;;37.22;;
59159;SDS011;44941;45.058;20.076;2022-11-15T09:17:42;67.88;;;37.40;;
59159;SDS011;44941;45.058;20.076;2022-11-15T09:20:08;66.10;;;37.70;;
59159;SDS011;44941;45.058;20.076;2022-11-15T09:22:35;65.70;;;38.80;;
59159;SDS011;44941;45.058;20.076;2022-11-15T09:25:01;70.53;;;41.80;;
59159;SDS011;44941;45.058;20.076;2022-11-15T09:27:28;64.90;;;40.08;;
59159;SDS011;44941;45.058;20.076;2022-11-15T09:29:54;73.70;;;41.80;;
59159;SDS011;44941;45.058;20.076;2022-11-15T09:32:21;73.55;;;40.85;;
59159;SDS011;44941;45.058;20.076;2022-11-15T09:34:50;76.90;;;43.30;;
59159;SDS011;44941;45.058;20.076;2022-11-15T09:37:16;71.30;;;43.65;;
59159;SDS011;44941;45.058;20.076;2022-11-15T09:39:42;69.45;;;41.08;;
59159;SDS011;44941;45.058;20.076;2022-11-15T09:50:10;79.85;;;46.20;;
59159;SDS011;44941;45.058;20.076;2022-11-15T09:52:37;73.90;;;44.97;;
59159;SDS011;44941;45.058;20.076;2022-11-15T09:55:07;79.88;;;47.05;;
59159;SDS011;44941;45.058;20.076;2022-11-15T09:57:43;81.15;;;46.95;;
59159;SDS011;44941;45.058;20.076;2022-11-15T10:05:27;79.50;;;44.97;;
59159;SDS011;44941;45.058;20.076;2022-11-15T10:10:40;86.03;;;48.47;;
59159;SDS011;44941;45.058;20.076;2022-11-15T10:13:18;83.82;;;46.40;;
59159;SDS011;44941;45.058;20.076;2022-11-15T10:15:45;81.72;;;48.58;;
59159;SDS011;44941;45.058;20.076;2022-11-15T10:18:17;78.72;;;47.35;;
59159;SDS011;44941;45.058;20.076;2022-11-15T10:20:52;85.35;;;50.90;;
59159;SDS011;44941;45.058;20.076;2022-11-15T10:23:21;86.07;;;48.45;;
59159;SDS011;44941;45.058;20.076;2022-11-15T10:25:47;78.53;;;45.67;;
59159;SDS011;44941;45.058;20.076;2022-11-15T10:28:17;88.18;;;48.53;;
59159;SDS011;44941;45.058;20.076;2022-11-15T10:30:53;89.40;;;48.80;;
59159;SDS011;44941;45.058;20.076;2022-11-15T10:33:23;81.07;;;47.28;;
59159;SDS011;44941;45.058;20.076;2022-11-15T10:38:54;80.00;;;44.75;;
59159;SDS011;44941;45.058;20.076;2022-11-15T10:41:42;93.57;;;48.40;;
59159;SDS011;44941;45.058;20.076;2022-11-15T10:46:34;86.22;;;48.80;;
59159;SDS011;44941;45.058;20.076;2022-11-15T10:49:16;84.90;;;47.00;;
59159;SDS011;44941;45.058;20.076;2022-11-15T10:51:45;84.55;;;47.13;;
59159;SDS011;44941;45.058;20.076;2022-11-15T10:54:11;76.68;;;45.08;;
59159;SDS011;44941;45.058;20.076;2022-11-15T10:56:38;83.55;;;47.67;;
59159;SDS011;44941;45.058;20.076;2022-11-15T10:59:05;82.53;;;46.60;;
59159;SDS011;44941;45.058;20.076;2022-11-15T11:01:31;80.15;;;46.63;;
59159;SDS011;44941;45.058;20.076;2022-11-15T11:04:10;86.53;;;48.72;;
59159;SDS011;44941;45.058;20.076;2022-11-15T11:11:46;91.82;;;51.83;;
59159;SDS011;44941;45.058;20.076;2022-11-15T11:14:17;89.73;;;51.40;;
59159;SDS011;44941;45.058;20.076;2022-11-15T11:16:56;89.93;;;52.75;;
59159;SDS011;44941;45.058;20.076;2022-11-15T11:32:47;88.70;;;49.90;;
59159;SDS011;44941;45.058;20.076;2022-11-15T11:37:54;90.68;;;52.55;;
59159;SDS011;44941;45.058;20.076;2022-11-15T11:40:29;99.00;;;55.05;;
59159;SDS011;44941;45.058;20.076;2022-11-15T11:50:27;86.18;;;50.53;;
59159;SDS011;44941;45.058;20.076;2022-11-15T11:53:14;86.85;;;48.28;;
59159;SDS011;44941;45.058;20.076;2022-11-15T11:55:45;91.47;;;50.22;;
59159;SDS011;44941;45.058;20.076;2022-11-15T11:58:23;88.15;;;50.30;;
59159;SDS011;44941;45.058;20.076;2022-11-15T12:05:44;86.97;;;50.80;;
59159;SDS011;44941;45.058;20.076;2022-11-15T12:10:43;87.85;;;50.33;;
59159;SDS011;44941;45.058;20.076;2022-11-15T12:13:13;87.80;;;48.38;;
59159;SDS011;44941;45.058;20.076;2022-11-15T12:15:45;84.88;;;47.25;;
59159;SDS011;44941;45.058;20.076;2022-11-15T12:18:13;83.60;;;47.85;;
59159;SDS011;44941;45.058;20.076;2022-11-15T12:20:41;79.35;;;45.45;;
59159;SDS011;44941;45.058;20.076;2022-11-15T12:25:53;79.05;;;44.72;;
59159;SDS011;44941;45.058;20.076;2022-11-15T12:31:03;75.13;;;43.53;;
59159;SDS011;44941;45.058;20.076;2022-11-15T12:33:35;87.05;;;48.70;;
59159;SDS011;44941;45.058;20.076;2022-11-15T12:41:19;84.55;;;48.50;;
59159;SDS011;44941;45.058;20.076;2022-11-15T12:43:46;81.57;;;45.33;;
59159;SDS011;44941;45.058;20.076;2022-11-15T12:48:55;86.35;;;47.78;;
59159;SDS011;44941;45.058;20.076;2022-11-15T12:59:52;88.95;;;50.28;;
59159;SDS011;44941;45.058;20.076;2022-11-15T13:02:31;96.18;;;52.63;;
59159;SDS011;44941;45.058;20.076;2022-11-15T13:17:36;89.57;;;48.35;;
59159;SDS011;44941;45.058;20.076;2022-11-15T13:25:23;89.28;;;49.40;;
59159;SDS011;44941;45.058;20.076;2022-11-15T13:27:53;91.88;;;51.97;;
59159;SDS011;44941;45.058;20.076;2022-11-15T13:30:26;78.72;;;48.13;;
59159;SDS011;44941;45.058;20.076;2022-11-15T13:32:52;88.40;;;49.30;;
59159;SDS011;44941;45.058;20.076;2022-11-15T13:35:24;93.47;;;51.70;;
59159;SDS011;44941;45.058;20.076;2022-11-15T13:37:50;85.93;;;49.20;;
59159;SDS011;44941;45.058;20.076;2022-11-15T13:40:27;90.43;;;49.03;;
59159;SDS011;44941;45.058;20.076;2022-11-15T13:42:56;85.93;;;50.10;;
59159;SDS011;44941;45.058;20.076;2022-11-15T13:45:22;83.53;;;48.42;;
59159;SDS011;44941;45.058;20.076;2022-11-15T13:47:55;98.40;;;53.17;;
59159;SDS011;44941;45.058;20.076;2022-11-15T13:50:24;84.28;;;48.85;;
59159;SDS011;44941;45.058;20.076;2022-11-15T13:52:51;90.45;;;50.17;;
59159;SDS011;44941;45.058;20.076;2022-11-15T13:55:18;92.22;;;51.85;;
59159;SDS011;44941;45.058;20.076;2022-11-15T14:02:56;90.03;;;48.70;;
59159;SDS011;44941;45.058;20.076;2022-11-15T14:05:23;99.45;;;53.13;;
59159;SDS011;44941;45.058;20.076;2022-11-15T14:07:56;110.07;;;54.60;;
59159;SDS011;44941;45.058;20.076;2022-11-15T14:12:51;89.38;;;50.88;;
59159;SDS011;44941;45.058;20.076;2022-11-15T14:15:28;90.75;;;49.00;;
59159;SDS011;44941;45.058;20.076;2022-11-15T14:17:54;88.47;;;47.28;;
59159;SDS011;44941;45.058;20.076;2022-11-15T14:20:28;83.85;;;47.13;;
59159;SDS011;44941;45.058;20.076;2022-11-15T14:22:58;81.97;;;46.85;;
59159;SDS011;44941;45.058;20.076;2022-11-15T14:25:25;87.75;;;48.88;;
59159;SDS011;44941;45.058;20.076;2022-11-15T14:30:55;94.00;;;50.20;;
59159;SDS011;44941;45.058;20.076;2022-11-15T14:35:53;93.28;;;49.55;;
59159;SDS011;44941;45.058;20.076;2022-11-15T14:38:21;96.40;;;50.58;;
59159;SDS011;44941;45.058;20.076;2022-11-15T14:40:47;96.22;;;52.78;;
59159;SDS011;44941;45.058;20.076;2022-11-15T14:43:13;99.47;;;51.50;;
59159;SDS011;44941;45.058;20.076;2022-11-15T14:45:39;91.10;;;49.47;;
59159;SDS011;44941;45.058;20.076;2022-11-15T14:48:06;98.10;;;53.45;;
59159;SDS011;44941;45.058;20.076;2022-11-15T14:50:32;106.53;;;54.05;;
59159;SDS011;44941;45.058;20.076;2022-11-15T14:52:59;106.82;;;56.67;;
59159;SDS011;44941;45.058;20.076;2022-11-15T14:57:52;101.90;;;55.13;;
59159;SDS011;44941;45.058;20.076;2022-11-15T15:00:18;99.38;;;50.90;;
59159;SDS011;44941;45.058;20.076;2022-11-15T15:02:45;100.45;;;53.85;;
59159;SDS011;44941;45.058;20.076;2022-11-15T15:05:15;100.35;;;51.55;;
59159;SDS011;44941;45.058;20.076;2022-11-15T15:07:42;102.38;;;54.03;;
59159;SDS011;44941;45.058;20.076;2022-11-15T15:10:08;96.32;;;51.92;;
59159;SDS011;44941;45.058;20.076;2022-11-15T15:12:34;98.05;;;51.92;;
59159;SDS011;44941;45.058;20.076;2022-11-15T15:15:00;103.18;;;52.55;;
59159;SDS011;44941;45.058;20.076;2022-11-15T15:17:26;109.28;;;56.45;;
59159;SDS011;44941;45.058;20.076;2022-11-15T15:19:52;113.88;;;58.88;;
59159;SDS011;44941;45.058;20.076;2022-11-15T15:22:19;115.43;;;59.17;;
59159;SDS011;44941;45.058;20.076;2022-11-15T15:24:50;116.40;;;58.08;;
59159;SDS011;44941;45.058;20.076;2022-11-15T15:27:16;107.85;;;56.45;;
59159;SDS011;44941;45.058;20.076;2022-11-15T15:29:42;139.27;;;75.10;;
59159;SDS011;44941;45.058;20.076;2022-11-15T15:32:09;130.98;;;69.00;;
59159;SDS011;44941;45.058;20.076;2022-11-15T15:34:36;125.40;;;64.32;;
59159;SDS011;44941;45.058;20.076;2022-11-15T15:37:09;117.35;;;61.08;;
59159;SDS011;44941;45.058;20.076;2022-11-15T15:39:35;113.53;;;60.35;;
59159;SDS011;44941;45.058;20.076;2022-11-15T15:42:01;112.47;;;61.70;;
59159;SDS011;44941;45.058;20.076;2022-11-15T15:44:28;131.40;;;66.60;;
59159;SDS011;44941;45.058;20.076;2022-11-15T15:46:54;121.47;;;63.35;;
59159;SDS011;44941;45.058;20.076;2022-11-15T15:49:22;131.40;;;63.63;;
59159;SDS011;44941;45.058;20.076;2022-11-15T15:51:49;129.52;;;61.63;;
59159;SDS011;44941;45.058;20.076;2022-11-15T15:54:27;121.22;;;57.15;;
59159;SDS011;44941;45.058;20.076;2022-11-15T15:56:53;128.18;;;60.47;;
59159;SDS011;44941;45.058;20.076;2022-11-15T15:59:19;133.68;;;63.90;;
59159;SDS011;44941;45.058;20.076;2022-11-15T16:01:45;120.30;;;58.45;;
59159;SDS011;44941;45.058;20.076;2022-11-15T16:04:11;113.90;;;55.65;;
59159;SDS011;44941;45.058;20.076;2022-11-15T16:06:38;110.68;;;55.20;;
59159;SDS011;44941;45.058;20.076;2022-11-15T16:09:08;120.22;;;55.78;;
59159;SDS011;44941;45.058;20.076;2022-11-15T16:11:35;112.65;;;52.53;;
59159;SDS011;44941;45.058;20.076;2022-11-15T16:14:01;103.45;;;51.25;;
59159;SDS011;44941;45.058;20.076;2022-11-15T16:16:27;105.72;;;51.92;;
59159;SDS011;44941;45.058;20.076;2022-11-15T16:18:53;111.55;;;52.13;;
59159;SDS011;44941;45.058;20.076;2022-11-15T16:21:20;97.30;;;49.00;;
59159;SDS011;44941;45.058;20.076;2022-11-15T16:23:46;103.10;;;51.22;;
59159;SDS011;44941;45.058;20.076;2022-11-15T16:26:19;109.35;;;52.20;;
59159;SDS011;44941;45.058;20.076;2022-11-15T16:28:46;106.32;;;53.58;;
59159;SDS011;44941;45.058;20.076;2022-11-15T16:31:12;109.40;;;55.60;;
59159;SDS011;44941;45.058;20.076;2022-11-15T16:33:38;109.72;;;56.88;;
59159;SDS011;44941;45.058;20.076;2022-11-15T16:36:06;107.80;;;54.22;;
59159;SDS011;44941;45.058;20.076;2022-11-15T16:38:32;105.22;;;55.65;;
59159;SDS011;44941;45.058;20.076;2022-11-15T16:40:58;115.70;;;58.42;;
59159;SDS011;44941;45.058;20.076;2022-11-15T16:43:24;107.00;;;56.17;;
59159;SDS011;44941;45.058;20.076;2022-11-15T16:45:50;108.47;;;58.97;;
59159;SDS011;44941;45.058;20.076;2022-11-15T16:48:24;110.60;;;58.55;;
59159;SDS011;44941;45.058;20.076;2022-11-15T16:50:50;103.15;;;55.90;;
59159;SDS011;44941;45.058;20.076;2022-11-15T16:53:19;102.57;;;53.80;;
59159;SDS011;44941;45.058;20.076;2022-11-15T16:55:45;105.15;;;54.88;;
59159;SDS011;44941;45.058;20.076;2022-11-15T16:58:11;104.60;;;53.70;;
59159;SDS011;44941;45.058;20.076;2022-11-15T17:00:37;100.07;;;52.45;;
59159;SDS011;44941;45.058;20.076;2022-11-15T17:03:03;107.30;;;56.10;;
59159;SDS011;44941;45.058;20.076;2022-11-15T17:05:29;108.53;;;55.55;;
59159;SDS011;44941;45.058;20.076;2022-11-15T17:07:56;108.28;;;56.03;;
59159;SDS011;44941;45.058;20.076;2022-11-15T17:10:22;105.05;;;56.17;;
59159;SDS011;44941;45.058;20.076;2022-11-15T17:12:49;102.40;;;53.38;;